Time;durP1;ratioP1;P1;durP2;ratioP2;P2;SDS_P1;SDS_P2;PMS_P1;PMS_P2;Temp;Humidity;BMP_temperature;BMP_pressure;BME280_temperature;BME280_humidity;BME280_pressure;Samples;Min_cycle;Max_cycle;Signal;HPM_P1;HPM_P2
2022/02/21 00:00:00;;;;;;;;;;;;;;;;;;350416;28;1507;-72
2022/02/21 00:00:20;;;;;;;;;;;;;;;;;;350039;28;934;-72
2022/02/21 00:00:30;;;;;;;;;;;;;;;;;;350038;28;940;-72
2022/02/21 00:00:41;;;;;;;;;;;;;;;;;;349255;28;1721;-72
2022/02/21 00:00:51;;;;;;;;;;;;;;;;;;348701;28;984;-72
2022/02/21 00:01:02;;;;;;;;;;;;;;;;;;348663;28;937;-72
2022/02/21 00:01:13;;;;;;;;;;;;;;;;;;348744;28;908;-72
2022/02/21 00:01:23;;;;;;;;;;;;;;;;;;348706;28;976;-72
2022/02/21 00:01:33;;;;;;;;;;;;;;;;;;348675;28;857;-72
2022/02/21 00:01:43;;;;;;;;;;;;;;;;;;348579;28;1636;-72
2022/02/21 00:01:54;;;;;;;;;;;;;;;;;;348697;28;854;-72
2022/02/21 00:02:04;;;;;;;;;;;;;;;;;;348661;28;1461;-72
2022/02/21 00:02:15;;;;;;;;;;;;;;;;;;348656;28;770;-72
2022/02/21 00:02:25;;;;;;;;;;;;;;;;;;348721;28;853;-72
2022/02/21 00:02:36;;;;;;;;;;;;;;;;;;348713;28;944;-72
2022/02/21 00:02:47;;;;;;;;;;;;;;;;;;348849;28;1752;-72
2022/02/21 00:02:58;;;;;;;;;;;;;;;;;;348766;28;928;-71
2022/02/21 00:03:08;;;;;;;;;;;;;;;;;;348636;28;1632;-71
2022/02/21 00:03:20;;;;;;;;;;;;;;;;;;348657;28;964;-72
2022/02/21 00:03:30;;;;;;;;;;;;;;;;;;348618;28;1008;-71
2022/02/21 00:03:41;;;;;;;;;;;;;;;;;;348722;28;941;-72
2022/02/21 00:03:51;;;;;;;;;;;;;;;;;;348694;28;980;-72
2022/02/21 00:04:01;;;;;;;;;;;;;;;;;;348760;28;872;-72
2022/02/21 00:04:11;;;;;;;;;;;;;;;;;;348713;28;925;-72
2022/02/21 00:04:21;;;;;;;;;;;;;;;;;;348628;28;884;-71
2022/02/21 00:04:32;;;;;;;;;;;;;;;;;;348693;28;860;-71
2022/02/21 00:04:42;;;;;;;;;;;;;;;;;;348692;28;933;-72
2022/02/21 00:04:52;;;;;;;;;;;;;;;;;;348675;28;1690;-71
2022/02/21 00:05:02;;;;;;;;;;;;;;;;;;348701;28;925;-72
2022/02/21 00:05:16;;;;;;;;;;;;;;;;;;348630;28;1080;-72
2022/02/21 00:05:27;;;;;;;;;;;;;;;;;;348697;28;921;-72
2022/02/21 00:05:37;;;;;;;;;;;;;;;;;;348690;28;893;-72
2022/02/21 00:05:48;;;;;;;;;;;;;;;;;;348732;28;762;-72
2022/02/21 00:05:58;;;;;;;;;;;;;;;;;;348664;28;908;-72
2022/02/21 00:06:08;;;;;;;;;;;;;;;;;;348696;28;921;-72
2022/02/21 00:06:19;;;;;;;;;;;;;;;;;;348657;28;932;-72
2022/02/21 00:06:29;;;;;;;;;;;;;;;;;;348652;28;917;-72
2022/02/21 00:06:43;;;;;;;;;;;;;;;;;;348696;28;838;-72
2022/02/21 00:06:53;;;;;;;;;;;;;;;;;;348591;28;1647;-72
2022/02/21 00:07:03;;;;;;;;;;;;;;;;;;349588;28;1727;-72
2022/02/21 00:07:14;;;;;;;;;;;;;;;;;;350073;28;782;-73
2022/02/21 00:07:24;;;;;;;;;;;;;;;;;;349703;28;1732;-71
2022/02/21 00:07:34;;;;;;;;;;;;;;;;;;349951;28;1546;-72
2022/02/21 00:07:45;;;;;;;;;;;;;;;;;;350039;28;901;-72
2022/02/21 00:07:55;;;;;;;;;;;;;;;;;;348820;28;1698;-71
2022/02/21 00:08:05;;;;;;;;;;;;;;;;;;348710;28;921;-72
2022/02/21 00:08:15;;;;;;;;;;;;;;;;;;348635;28;964;-72
2022/02/21 00:08:26;;;;;;;;;;;;;;;;;;348643;28;976;-72
2022/02/21 00:08:36;;;;;;;;;;;;;;;;;;348688;28;896;-72
2022/02/21 00:08:46;;;;;;;;;;;;;;;;;;348669;28;854;-73
2022/02/21 00:08:56;;;;;;;;;;;;;;;;;;348644;28;1910;-72
2022/02/21 00:09:07;;;;;;;;;;;;;;;;;;348672;28;1132;-72
2022/02/21 00:09:17;;;;;;;;;;;;;;;;;;348684;28;917;-72
2022/02/21 00:09:27;;;;;;;;;;;;;;;;;;348650;28;1084;-72
2022/02/21 00:09:38;;;;;;;;;;;;;;;;;;348683;28;983;-71
2022/02/21 00:09:48;;;;;;;;;;;;;;;;;;348643;28;917;-72
2022/02/21 00:09:58;;;;;;;;;;;;;;;;;;348710;28;937;-72
2022/02/21 00:10:09;;;;;;;;;;;;;;;;;;348657;28;1047;-72
2022/02/21 00:10:19;;;;;;;;;;;;;;;;;;348566;28;1015;-72
2022/02/21 00:10:30;;;;;;;;;;;;;;;;;;348656;28;1077;-72
2022/02/21 00:10:40;;;;;;;;;;;;;;;;;;348597;28;905;-71
2022/02/21 00:10:51;;;;;;;;;;;;;;;;;;348662;28;956;-72
2022/02/21 00:11:02;;;;;;;;;;;;;;;;;;348703;28;996;-71
2022/02/21 00:11:12;;;;;;;;;;;;;;;;;;348626;28;1003;-72
2022/02/21 00:11:22;;;;;;;;;;;;;;;;;;348705;28;945;-72
2022/02/21 00:11:33;;;;;;;;;;;;;;;;;;348700;28;917;-72
2022/02/21 00:11:43;;;;;;;;;;;;;;;;;;348615;28;893;-72
2022/02/21 00:11:53;;;;;;;;;;;;;;;;;;348461;28;1714;-71
2022/02/21 00:12:04;;;;;;;;;;;;;;;;;;348651;28;1733;-72
2022/02/21 00:12:14;;;;;;;;;;;;;;;;;;348634;28;1118;-72
2022/02/21 00:12:25;;;;;;;;;;;;;;;;;;348618;28;1145;-72
2022/02/21 00:12:35;;;;;;;;;;;;;;;;;;348613;28;845;-73
2022/02/21 00:12:46;;;;;;;;;;;;;;;;;;348684;28;969;-73
2022/02/21 00:12:56;;;;;;;;;;;;;;;;;;348631;28;1012;-72
2022/02/21 00:13:06;;;;;;;;;;;;;;;;;;348706;28;967;-73
2022/02/21 00:13:16;;;;;;;;;;;;;;;;;;348607;28;1004;-72
2022/02/21 00:13:27;;;;;;;;;;;;;;;;;;348700;28;925;-72
2022/02/21 00:13:37;;;;;;;;;;;;;;;;;;348706;28;912;-72
2022/02/21 00:13:47;;;;;;;;;;;;;;;;;;348680;28;925;-72
2022/02/21 00:13:57;;;;;;;;;;;;;;;;;;348584;28;1715;-72
2022/02/21 00:14:08;;;;;;;;;;;;;;;;;;348717;28;987;-72
2022/02/21 00:14:18;;;;;;;;;;;;;;;;;;348714;28;917;-72
2022/02/21 00:14:28;;;;;;;;;;;;;;;;;;348691;28;850;-72
2022/02/21 00:14:38;;;;;;;;;;;;;;;;;;348611;28;968;-72
2022/02/21 00:14:49;;;;;;;;;;;;;;;;;;348661;28;810;-72
2022/02/21 00:14:59;;;;;;;;;;;;;;;;;;348680;28;983;-72
2022/02/21 00:15:12;;;;;;;;;;;;;;;;;;348708;28;841;-72
2022/02/21 00:15:25;;;;;;;;;;;;;;;;;;348677;28;949;-72
2022/02/21 00:15:35;;;;;;;;;;;;;;;;;;348694;28;933;-72
2022/02/21 00:15:45;;;;;;;;;;;;;;;;;;348514;28;1722;-71
2022/02/21 00:15:55;;;;;;;;;;;;;;;;;;348707;28;925;-72
2022/02/21 00:16:06;;;;;;;;;;;;;;;;;;348631;28;1198;-72
2022/02/21 00:16:16;;;;;;;;;;;;;;;;;;348670;28;996;-72
2022/02/21 00:16:26;;;;;;;;;;;;;;;;;;348707;28;837;-72
2022/02/21 00:16:36;;;;;;;;;;;;;;;;;;348726;28;953;-73
2022/02/21 00:16:47;;;;;;;;;;;;;;;;;;348443;28;1825;-72
2022/02/21 00:16:57;;;;;;;;;;;;;;;;;;349332;28;1781;-72
2022/02/21 00:17:07;;;;;;;;;;;;;;;;;;350087;28;794;-72
2022/02/21 00:17:18;;;;;;;;;;;;;;;;;;350044;28;921;-72
2022/02/21 00:17:28;;;;;;;;;;;;;;;;;;348788;28;1784;-72
2022/02/21 00:17:38;;;;;;;;;;;;;;;;;;348707;28;817;-72
2022/02/21 00:17:49;;;;;;;;;;;;;;;;;;348679;28;786;-72
2022/02/21 00:17:59;;;;;;;;;;;;;;;;;;348639;28;1040;-72
2022/02/21 00:18:09;;;;;;;;;;;;;;;;;;348640;28;905;-72
2022/02/21 00:18:20;;;;;;;;;;;;;;;;;;348714;28;834;-72
2022/02/21 00:18:30;;;;;;;;;;;;;;;;;;348679;28;984;-72
2022/02/21 00:18:40;;;;;;;;;;;;;;;;;;348642;28;972;-72
2022/02/21 00:18:50;;;;;;;;;;;;;;;;;;348597;28;988;-72
2022/02/21 00:19:00;;;;;;;;;;;;;;;;;;348666;28;925;-72
2022/02/21 00:19:11;;;;;;;;;;;;;;;;;;348644;28;1136;-72
2022/02/21 00:19:21;;;;;;;;;;;;;;;;;;348805;28;932;-73
2022/02/21 00:19:31;;;;;;;;;;;;;;;;;;348638;28;984;-72
2022/02/21 00:19:41;;;;;;;;;;;;;;;;;;348709;28;799;-72
2022/02/21 00:19:52;;;;;;;;;;;;;;;;;;348643;28;984;-72
2022/02/21 00:20:02;;;;;;;;;;;;;;;;;;348652;28;1011;-72
2022/02/21 00:20:12;;;;;;;;;;;;;;;;;;348552;28;980;-72
2022/02/21 00:20:23;;;;;;;;;;;;;;;;;;348704;28;861;-72
2022/02/21 00:20:33;;;;;;;;;;;;;;;;;;348681;28;937;-72
2022/02/21 00:20:43;;;;;;;;;;;;;;;;;;348698;28;921;-72
2022/02/21 00:20:54;;;;;;;;;;;;;;;;;;348562;28;956;-72
2022/02/21 00:21:05;;;;;;;;;;;;;;;;;;348651;28;963;-72
2022/02/21 00:21:16;;;;;;;;;;;;;;;;;;348770;28;770;-72
2022/02/21 00:21:26;;;;;;;;;;;;;;;;;;348673;28;945;-72
2022/02/21 00:21:37;;;;;;;;;;;;;;;;;;348617;28;929;-72
2022/02/21 00:21:47;;;;;;;;;;;;;;;;;;349092;28;1673;-72
2022/02/21 00:21:57;;;;;;;;;;;;;;;;;;349125;28;1503;-72
2022/02/21 00:22:07;;;;;;;;;;;;;;;;;;348711;28;1684;-72
2022/02/21 00:22:17;;;;;;;;;;;;;;;;;;348669;28;913;-72
2022/02/21 00:22:28;;;;;;;;;;;;;;;;;;348635;28;1034;-72
2022/02/21 00:22:38;;;;;;;;;;;;;;;;;;348739;28;1003;-72
2022/02/21 00:22:48;;;;;;;;;;;;;;;;;;348652;28;1074;-72
2022/02/21 00:22:59;;;;;;;;;;;;;;;;;;348653;28;885;-72
2022/02/21 00:23:09;;;;;;;;;;;;;;;;;;348639;28;1012;-72
2022/02/21 00:23:19;;;;;;;;;;;;;;;;;;348656;28;928;-72
2022/02/21 00:23:30;;;;;;;;;;;;;;;;;;348650;28;1027;-72
2022/02/21 00:23:40;;;;;;;;;;;;;;;;;;348637;28;1069;-72
2022/02/21 00:23:50;;;;;;;;;;;;;;;;;;348664;28;940;-73
2022/02/21 00:24:00;;;;;;;;;;;;;;;;;;348682;28;911;-72
2022/02/21 00:24:11;;;;;;;;;;;;;;;;;;348621;28;953;-72
2022/02/21 00:24:21;;;;;;;;;;;;;;;;;;348657;28;1004;-72
2022/02/21 00:24:31;;;;;;;;;;;;;;;;;;348666;28;1019;-72
2022/02/21 00:24:41;;;;;;;;;;;;;;;;;;348713;28;913;-72
2022/02/21 00:24:52;;;;;;;;;;;;;;;;;;348644;28;1667;-72
2022/02/21 00:25:03;;;;;;;;;;;;;;;;;;348524;28;1788;-72
2022/02/21 00:25:13;;;;;;;;;;;;;;;;;;348626;28;953;-72
2022/02/21 00:25:23;;;;;;;;;;;;;;;;;;348710;28;865;-72
2022/02/21 00:25:33;;;;;;;;;;;;;;;;;;348676;28;929;-72
2022/02/21 00:25:44;;;;;;;;;;;;;;;;;;348636;28;1016;-72
2022/02/21 00:25:54;;;;;;;;;;;;;;;;;;348626;28;980;-72
2022/02/21 00:26:04;;;;;;;;;;;;;;;;;;348678;28;1016;-72
2022/02/21 00:26:15;;;;;;;;;;;;;;;;;;348638;28;912;-72
2022/02/21 00:26:25;;;;;;;;;;;;;;;;;;348671;28;924;-73
2022/02/21 00:26:35;;;;;;;;;;;;;;;;;;348657;28;960;-72
2022/02/21 00:26:45;;;;;;;;;;;;;;;;;;348645;28;933;-72
2022/02/21 00:26:56;;;;;;;;;;;;;;;;;;348635;28;1648;-72
2022/02/21 00:27:06;;;;;;;;;;;;;;;;;;348606;28;1008;-72
2022/02/21 00:27:16;;;;;;;;;;;;;;;;;;348662;28;806;-72
2022/02/21 00:27:26;;;;;;;;;;;;;;;;;;348645;28;850;-72
2022/02/21 00:27:37;;;;;;;;;;;;;;;;;;349328;28;1203;-72
2022/02/21 00:27:47;;;;;;;;;;;;;;;;;;349923;28;1488;-72
2022/02/21 00:27:58;;;;;;;;;;;;;;;;;;350068;28;884;-72
2022/02/21 00:28:08;;;;;;;;;;;;;;;;;;349961;28;1010;-72
2022/02/21 00:28:18;;;;;;;;;;;;;;;;;;350068;28;881;-72
2022/02/21 00:28:28;;;;;;;;;;;;;;;;;;350040;28;810;-72
2022/02/21 00:28:39;;;;;;;;;;;;;;;;;;350067;28;917;-73
2022/02/21 00:28:49;;;;;;;;;;;;;;;;;;349849;28;1266;-72
2022/02/21 00:29:00;;;;;;;;;;;;;;;;;;349986;28;1906;-72
2022/02/21 00:29:11;;;;;;;;;;;;;;;;;;350053;28;968;-72
2022/02/21 00:29:21;;;;;;;;;;;;;;;;;;349924;28;1209;-72
2022/02/21 00:29:31;;;;;;;;;;;;;;;;;;349329;28;1757;-72
2022/02/21 00:29:42;;;;;;;;;;;;;;;;;;350009;28;1589;-72
2022/02/21 00:29:52;;;;;;;;;;;;;;;;;;349823;28;1794;-72
2022/02/21 00:30:03;;;;;;;;;;;;;;;;;;350583;28;1550;-73
2022/02/21 00:30:13;;;;;;;;;;;;;;;;;;351414;28;972;-72
2022/02/21 00:30:23;;;;;;;;;;;;;;;;;;351417;28;917;-72
2022/02/21 00:30:33;;;;;;;;;;;;;;;;;;351434;28;952;-72
2022/02/21 00:30:44;;;;;;;;;;;;;;;;;;349551;28;1642;-72
2022/02/21 00:30:54;;;;;;;;;;;;;;;;;;348724;28;920;-72
2022/02/21 00:31:04;;;;;;;;;;;;;;;;;;348612;28;901;-72
2022/02/21 00:31:15;;;;;;;;;;;;;;;;;;348676;28;947;-72
2022/02/21 00:31:25;;;;;;;;;;;;;;;;;;348609;28;976;-72
2022/02/21 00:31:35;;;;;;;;;;;;;;;;;;348667;28;992;-72
2022/02/21 00:31:46;;;;;;;;;;;;;;;;;;348615;28;1191;-72
2022/02/21 00:31:56;;;;;;;;;;;;;;;;;;348619;28;868;-72
2022/02/21 00:32:06;;;;;;;;;;;;;;;;;;348640;28;857;-71
2022/02/21 00:32:17;;;;;;;;;;;;;;;;;;348596;28;964;-73
2022/02/21 00:32:27;;;;;;;;;;;;;;;;;;348621;28;908;-73
2022/02/21 00:32:37;;;;;;;;;;;;;;;;;;348659;28;937;-73
2022/02/21 00:32:47;;;;;;;;;;;;;;;;;;348512;28;1695;-72
2022/02/21 00:32:58;;;;;;;;;;;;;;;;;;349411;28;1840;-73
2022/02/21 00:33:08;;;;;;;;;;;;;;;;;;350047;28;814;-72
2022/02/21 00:33:18;;;;;;;;;;;;;;;;;;349484;28;1679;-72
2022/02/21 00:33:29;;;;;;;;;;;;;;;;;;348488;28;1704;-72
2022/02/21 00:33:39;;;;;;;;;;;;;;;;;;348654;28;925;-73
2022/02/21 00:33:49;;;;;;;;;;;;;;;;;;348698;28;999;-72
2022/02/21 00:33:59;;;;;;;;;;;;;;;;;;348615;28;936;-72
2022/02/21 00:34:10;;;;;;;;;;;;;;;;;;348601;28;1130;-72
2022/02/21 00:34:20;;;;;;;;;;;;;;;;;;348698;28;798;-72
2022/02/21 00:34:30;;;;;;;;;;;;;;;;;;348654;28;920;-72
2022/02/21 00:34:40;;;;;;;;;;;;;;;;;;348595;28;1644;-72
2022/02/21 00:34:51;;;;;;;;;;;;;;;;;;348578;28;1760;-72
2022/02/21 00:35:01;;;;;;;;;;;;;;;;;;348552;28;1090;-72
2022/02/21 00:35:11;;;;;;;;;;;;;;;;;;348661;28;1664;-72
2022/02/21 00:35:22;;;;;;;;;;;;;;;;;;348672;28;921;-72
2022/02/21 00:35:32;;;;;;;;;;;;;;;;;;348593;28;917;-72
2022/02/21 00:35:42;;;;;;;;;;;;;;;;;;348610;28;897;-72
2022/02/21 00:35:53;;;;;;;;;;;;;;;;;;348650;28;905;-72
2022/02/21 00:36:03;;;;;;;;;;;;;;;;;;348620;28;977;-72
2022/02/21 00:36:13;;;;;;;;;;;;;;;;;;348647;28;853;-72
2022/02/21 00:36:24;;;;;;;;;;;;;;;;;;348655;28;968;-72
2022/02/21 00:36:34;;;;;;;;;;;;;;;;;;348621;28;898;-72
2022/02/21 00:36:44;;;;;;;;;;;;;;;;;;348655;28;1707;-72
2022/02/21 00:36:54;;;;;;;;;;;;;;;;;;348599;28;1855;-72
2022/02/21 00:37:05;;;;;;;;;;;;;;;;;;348686;28;905;-72
2022/02/21 00:37:15;;;;;;;;;;;;;;;;;;348544;28;1644;-72
2022/02/21 00:37:25;;;;;;;;;;;;;;;;;;348515;28;1675;-71
2022/02/21 00:37:35;;;;;;;;;;;;;;;;;;348614;28;1042;-72
2022/02/21 00:37:46;;;;;;;;;;;;;;;;;;348652;28;996;-72
2022/02/21 00:37:56;;;;;;;;;;;;;;;;;;348545;28;1007;-73
2022/02/21 00:38:06;;;;;;;;;;;;;;;;;;348667;28;829;-72
2022/02/21 00:38:17;;;;;;;;;;;;;;;;;;348649;28;860;-72
2022/02/21 00:38:27;;;;;;;;;;;;;;;;;;348662;28;996;-72
2022/02/21 00:38:37;;;;;;;;;;;;;;;;;;350323;28;1292;-72
2022/02/21 00:38:48;;;;;;;;;;;;;;;;;;349559;28;1579;-72
2022/02/21 00:38:58;;;;;;;;;;;;;;;;;;348618;28;1200;-72
2022/02/21 00:39:08;;;;;;;;;;;;;;;;;;348657;28;921;-72
2022/02/21 00:39:18;;;;;;;;;;;;;;;;;;348602;28;832;-72
2022/02/21 00:39:29;;;;;;;;;;;;;;;;;;348688;28;814;-72
2022/02/21 00:39:39;;;;;;;;;;;;;;;;;;348560;28;1001;-72
2022/02/21 00:39:49;;;;;;;;;;;;;;;;;;348626;28;954;-72
2022/02/21 00:39:59;;;;;;;;;;;;;;;;;;348607;28;987;-72
2022/02/21 00:40:10;;;;;;;;;;;;;;;;;;348665;28;984;-72
2022/02/21 00:40:20;;;;;;;;;;;;;;;;;;348611;28;877;-72
2022/02/21 00:40:31;;;;;;;;;;;;;;;;;;348705;28;806;-72
2022/02/21 00:40:41;;;;;;;;;;;;;;;;;;348588;28;929;-72
2022/02/21 00:40:51;;;;;;;;;;;;;;;;;;348609;28;1047;-72
2022/02/21 00:41:01;;;;;;;;;;;;;;;;;;348689;28;932;-72
2022/02/21 00:41:12;;;;;;;;;;;;;;;;;;348654;28;979;-72
2022/02/21 00:41:22;;;;;;;;;;;;;;;;;;348566;28;917;-72
2022/02/21 00:41:32;;;;;;;;;;;;;;;;;;348637;28;961;-72
2022/02/21 00:41:42;;;;;;;;;;;;;;;;;;348651;28;937;-72
2022/02/21 00:41:52;;;;;;;;;;;;;;;;;;348498;28;1699;-71
2022/02/21 00:42:03;;;;;;;;;;;;;;;;;;348631;28;877;-72
2022/02/21 00:42:14;;;;;;;;;;;;;;;;;;348648;28;897;-72
2022/02/21 00:42:24;;;;;;;;;;;;;;;;;;348615;28;880;-73
2022/02/21 00:42:35;;;;;;;;;;;;;;;;;;348721;28;989;-72
2022/02/21 00:42:45;;;;;;;;;;;;;;;;;;348644;28;920;-72
2022/02/21 00:42:55;;;;;;;;;;;;;;;;;;348628;28;1071;-72
2022/02/21 00:43:05;;;;;;;;;;;;;;;;;;348655;28;996;-72
2022/02/21 00:43:16;;;;;;;;;;;;;;;;;;350003;28;1676;-72
2022/02/21 00:43:26;;;;;;;;;;;;;;;;;;349955;28;880;-72
2022/02/21 00:43:36;;;;;;;;;;;;;;;;;;350027;28;849;-72
2022/02/21 00:43:46;;;;;;;;;;;;;;;;;;350082;28;849;-72
2022/02/21 00:43:57;;;;;;;;;;;;;;;;;;349976;28;908;-72
2022/02/21 00:44:07;;;;;;;;;;;;;;;;;;349967;28;956;-72
2022/02/21 00:44:17;;;;;;;;;;;;;;;;;;349999;28;999;-72
2022/02/21 00:44:27;;;;;;;;;;;;;;;;;;349968;28;996;-72
2022/02/21 00:44:39;;;;;;;;;;;;;;;;;;350047;28;900;-72
2022/02/21 00:44:51;;;;;;;;;;;;;;;;;;349990;28;996;-72
2022/02/21 00:45:07;;;;;;;;;;;;;;;;;;350036;28;952;-73
2022/02/21 00:45:17;;;;;;;;;;;;;;;;;;350973;28;1707;-72
2022/02/21 00:45:27;;;;;;;;;;;;;;;;;;351348;28;916;-72
2022/02/21 00:45:38;;;;;;;;;;;;;;;;;;351194;28;1564;-72
2022/02/21 00:45:48;;;;;;;;;;;;;;;;;;348525;28;1835;-72
2022/02/21 00:45:58;;;;;;;;;;;;;;;;;;348599;28;952;-71
2022/02/21 00:46:09;;;;;;;;;;;;;;;;;;348599;28;921;-72
2022/02/21 00:46:19;;;;;;;;;;;;;;;;;;348610;28;1055;-72
2022/02/21 00:46:29;;;;;;;;;;;;;;;;;;348623;28;983;-72
2022/02/21 00:46:39;;;;;;;;;;;;;;;;;;348597;28;1001;-72
2022/02/21 00:46:50;;;;;;;;;;;;;;;;;;349561;28;1712;-72
2022/02/21 00:47:00;;;;;;;;;;;;;;;;;;351387;28;995;-72
2022/02/21 00:47:10;;;;;;;;;;;;;;;;;;351400;28;937;-72
2022/02/21 00:47:21;;;;;;;;;;;;;;;;;;351445;28;921;-72
2022/02/21 00:47:31;;;;;;;;;;;;;;;;;;351413;28;904;-72
2022/02/21 00:47:41;;;;;;;;;;;;;;;;;;350492;28;1623;-72
2022/02/21 00:47:52;;;;;;;;;;;;;;;;;;348462;28;1828;-72
2022/02/21 00:48:02;;;;;;;;;;;;;;;;;;348563;28;992;-71
2022/02/21 00:48:12;;;;;;;;;;;;;;;;;;348631;28;932;-72
2022/02/21 00:48:22;;;;;;;;;;;;;;;;;;348616;28;1039;-72
2022/02/21 00:48:32;;;;;;;;;;;;;;;;;;348659;28;925;-72
2022/02/21 00:48:43;;;;;;;;;;;;;;;;;;348519;28;1628;-71
2022/02/21 00:48:53;;;;;;;;;;;;;;;;;;348634;28;976;-72
2022/02/21 00:49:05;;;;;;;;;;;;;;;;;;348563;28;1910;-72
2022/02/21 00:49:15;;;;;;;;;;;;;;;;;;348706;28;841;-72
2022/02/21 00:49:25;;;;;;;;;;;;;;;;;;348612;28;964;-72
2022/02/21 00:49:36;;;;;;;;;;;;;;;;;;348548;28;1004;-72
2022/02/21 00:49:46;;;;;;;;;;;;;;;;;;348626;28;1007;-72
2022/02/21 00:49:56;;;;;;;;;;;;;;;;;;348660;28;968;-72
2022/02/21 00:50:07;;;;;;;;;;;;;;;;;;348600;28;941;-72
2022/02/21 00:50:17;;;;;;;;;;;;;;;;;;348584;28;965;-72
2022/02/21 00:50:27;;;;;;;;;;;;;;;;;;348585;28;892;-72
2022/02/21 00:50:38;;;;;;;;;;;;;;;;;;348656;28;952;-72
2022/02/21 00:50:48;;;;;;;;;;;;;;;;;;348645;28;892;-72
2022/02/21 00:50:58;;;;;;;;;;;;;;;;;;348671;28;900;-72
2022/02/21 00:51:09;;;;;;;;;;;;;;;;;;348642;28;984;-72
2022/02/21 00:51:19;;;;;;;;;;;;;;;;;;348637;28;956;-72
2022/02/21 00:51:29;;;;;;;;;;;;;;;;;;348612;28;937;-72
2022/02/21 00:51:39;;;;;;;;;;;;;;;;;;348662;28;849;-72
2022/02/21 00:51:50;;;;;;;;;;;;;;;;;;348626;28;925;-72
2022/02/21 00:52:02;;;;;;;;;;;;;;;;;;348495;28;1675;-72
2022/02/21 00:52:12;;;;;;;;;;;;;;;;;;348530;28;933;-72
2022/02/21 00:52:22;;;;;;;;;;;;;;;;;;348599;28;995;-72
2022/02/21 00:52:33;;;;;;;;;;;;;;;;;;348617;28;992;-72
2022/02/21 00:52:43;;;;;;;;;;;;;;;;;;348653;28;924;-72
2022/02/21 00:52:53;;;;;;;;;;;;;;;;;;348601;28;941;-71
2022/02/21 00:53:04;;;;;;;;;;;;;;;;;;348500;28;1702;-72
2022/02/21 00:53:14;;;;;;;;;;;;;;;;;;349242;28;1317;-72
2022/02/21 00:53:24;;;;;;;;;;;;;;;;;;350059;28;928;-72
2022/02/21 00:53:34;;;;;;;;;;;;;;;;;;349987;28;897;-73
2022/02/21 00:53:45;;;;;;;;;;;;;;;;;;349972;28;1051;-72
2022/02/21 00:53:55;;;;;;;;;;;;;;;;;;350226;28;1755;-72
2022/02/21 00:54:05;;;;;;;;;;;;;;;;;;350021;28;873;-72
2022/02/21 00:54:16;;;;;;;;;;;;;;;;;;349929;28;912;-72
2022/02/21 00:54:26;;;;;;;;;;;;;;;;;;350018;28;972;-72
2022/02/21 00:54:36;;;;;;;;;;;;;;;;;;349988;28;873;-72
2022/02/21 00:54:47;;;;;;;;;;;;;;;;;;349984;28;984;-72
2022/02/21 00:54:57;;;;;;;;;;;;;;;;;;349961;28;806;-72
2022/02/21 00:55:07;;;;;;;;;;;;;;;;;;350028;28;916;-72
2022/02/21 00:55:18;;;;;;;;;;;;;;;;;;350011;28;901;-73
2022/02/21 00:55:30;;;;;;;;;;;;;;;;;;350011;28;865;-72
2022/02/21 00:55:40;;;;;;;;;;;;;;;;;;349935;28;968;-72
2022/02/21 00:55:50;;;;;;;;;;;;;;;;;;349994;28;917;-72
2022/02/21 00:56:02;;;;;;;;;;;;;;;;;;349971;28;944;-71
2022/02/21 00:56:12;;;;;;;;;;;;;;;;;;349242;28;1726;-71
2022/02/21 00:56:22;;;;;;;;;;;;;;;;;;348562;28;921;-72
2022/02/21 00:56:32;;;;;;;;;;;;;;;;;;348630;28;841;-72
2022/02/21 00:56:43;;;;;;;;;;;;;;;;;;348583;28;1703;-71
2022/02/21 00:56:53;;;;;;;;;;;;;;;;;;348608;28;999;-72
2022/02/21 00:57:03;;;;;;;;;;;;;;;;;;348645;28;936;-72
2022/02/21 00:57:14;;;;;;;;;;;;;;;;;;348575;28;963;-73
2022/02/21 00:57:24;;;;;;;;;;;;;;;;;;348624;28;884;-72
2022/02/21 00:57:34;;;;;;;;;;;;;;;;;;348568;28;937;-72
2022/02/21 00:57:44;;;;;;;;;;;;;;;;;;349397;28;1305;-72
2022/02/21 00:57:55;;;;;;;;;;;;;;;;;;349993;28;921;-72
2022/02/21 00:58:05;;;;;;;;;;;;;;;;;;349962;28;869;-72
2022/02/21 00:58:15;;;;;;;;;;;;;;;;;;348894;28;1663;-72
2022/02/21 00:58:25;;;;;;;;;;;;;;;;;;348611;28;858;-73
2022/02/21 00:58:36;;;;;;;;;;;;;;;;;;348445;28;1177;-74
2022/02/21 00:58:46;;;;;;;;;;;;;;;;;;348704;28;888;-72
2022/02/21 00:58:56;;;;;;;;;;;;;;;;;;348656;28;1385;-72
2022/02/21 00:59:06;;;;;;;;;;;;;;;;;;350016;28;965;-72
2022/02/21 00:59:17;;;;;;;;;;;;;;;;;;350037;28;782;-72
2022/02/21 00:59:27;;;;;;;;;;;;;;;;;;350035;28;937;-73
2022/02/21 00:59:37;;;;;;;;;;;;;;;;;;349990;28;976;-72
2022/02/21 00:59:48;;;;;;;;;;;;;;;;;;349948;28;940;-73
2022/02/21 00:59:59;;;;;;;;;;;;;;;;;;350176;28;1751;-72
2022/02/21 01:00:10;;;;;;;;;;;;;;;;;;349290;28;1639;-72
2022/02/21 01:00:20;;;;;;;;;;;;;;;;;;348832;28;1756;-72
2022/02/21 01:00:30;;;;;;;;;;;;;;;;;;350002;28;904;-72
2022/02/21 01:00:41;;;;;;;;;;;;;;;;;;349976;28;869;-72
2022/02/21 01:00:51;;;;;;;;;;;;;;;;;;349670;28;1682;-72
2022/02/21 01:01:01;;;;;;;;;;;;;;;;;;349997;28;976;-72
2022/02/21 01:01:12;;;;;;;;;;;;;;;;;;350012;28;865;-72
2022/02/21 01:01:22;;;;;;;;;;;;;;;;;;350001;28;928;-72
2022/02/21 01:01:32;;;;;;;;;;;;;;;;;;349997;28;881;-72
2022/02/21 01:01:42;;;;;;;;;;;;;;;;;;349946;28;968;-72
2022/02/21 01:01:53;;;;;;;;;;;;;;;;;;349641;28;1675;-72
2022/02/21 01:02:03;;;;;;;;;;;;;;;;;;350001;28;881;-73
2022/02/21 01:02:13;;;;;;;;;;;;;;;;;;349956;28;1057;-73
2022/02/21 01:02:23;;;;;;;;;;;;;;;;;;349924;28;1060;-72
2022/02/21 01:02:34;;;;;;;;;;;;;;;;;;349940;28;975;-73
2022/02/21 01:02:44;;;;;;;;;;;;;;;;;;350009;28;893;-72
2022/02/21 01:02:54;;;;;;;;;;;;;;;;;;349930;28;977;-73
2022/02/21 01:03:05;;;;;;;;;;;;;;;;;;349991;28;913;-72
2022/02/21 01:03:15;;;;;;;;;;;;;;;;;;349924;28;1184;-73
2022/02/21 01:03:25;;;;;;;;;;;;;;;;;;349946;28;976;-72
2022/02/21 01:03:36;;;;;;;;;;;;;;;;;;350020;28;976;-72
2022/02/21 01:03:46;;;;;;;;;;;;;;;;;;349953;28;1015;-72
2022/02/21 01:03:56;;;;;;;;;;;;;;;;;;350003;28;1831;-73
2022/02/21 01:04:06;;;;;;;;;;;;;;;;;;350023;28;853;-72
2022/02/21 01:04:17;;;;;;;;;;;;;;;;;;349684;28;1663;-72
2022/02/21 01:04:27;;;;;;;;;;;;;;;;;;348801;28;1760;-72
2022/02/21 01:04:38;;;;;;;;;;;;;;;;;;348652;28;822;-71
2022/02/21 01:04:48;;;;;;;;;;;;;;;;;;348537;28;929;-72
2022/02/21 01:04:59;;;;;;;;;;;;;;;;;;348577;28;808;-72
2022/02/21 01:05:09;;;;;;;;;;;;;;;;;;348672;28;859;-72
2022/02/21 01:05:19;;;;;;;;;;;;;;;;;;348636;28;834;-71
2022/02/21 01:05:30;;;;;;;;;;;;;;;;;;348650;28;968;-72
2022/02/21 01:05:40;;;;;;;;;;;;;;;;;;348597;28;853;-72
2022/02/21 01:05:51;;;;;;;;;;;;;;;;;;348597;28;1012;-72
2022/02/21 01:06:01;;;;;;;;;;;;;;;;;;348532;28;980;-73
2022/02/21 01:06:11;;;;;;;;;;;;;;;;;;348634;28;937;-73
2022/02/21 01:06:22;;;;;;;;;;;;;;;;;;348672;28;958;-73
2022/02/21 01:06:32;;;;;;;;;;;;;;;;;;348583;28;883;-73
2022/02/21 01:06:42;;;;;;;;;;;;;;;;;;348627;28;826;-73
2022/02/21 01:06:52;;;;;;;;;;;;;;;;;;348537;28;1695;-73
2022/02/21 01:07:03;;;;;;;;;;;;;;;;;;348548;28;1781;-73
2022/02/21 01:07:13;;;;;;;;;;;;;;;;;;349870;28;1808;-73
2022/02/21 01:07:23;;;;;;;;;;;;;;;;;;350014;28;929;-73
2022/02/21 01:07:33;;;;;;;;;;;;;;;;;;350027;28;917;-73
2022/02/21 01:07:44;;;;;;;;;;;;;;;;;;349649;28;1697;-73
2022/02/21 01:07:54;;;;;;;;;;;;;;;;;;349926;28;1008;-73
2022/02/21 01:08:05;;;;;;;;;;;;;;;;;;349978;28;972;-73
2022/02/21 01:08:15;;;;;;;;;;;;;;;;;;349923;28;979;-73
2022/02/21 01:08:25;;;;;;;;;;;;;;;;;;350000;28;867;-73
2022/02/21 01:08:36;;;;;;;;;;;;;;;;;;350020;28;904;-73
2022/02/21 01:08:46;;;;;;;;;;;;;;;;;;349661;28;1624;-72
2022/02/21 01:08:56;;;;;;;;;;;;;;;;;;348461;28;1927;-72
2022/02/21 01:09:07;;;;;;;;;;;;;;;;;;349990;28;806;-72
2022/02/21 01:09:17;;;;;;;;;;;;;;;;;;349980;28;964;-72
2022/02/21 01:09:27;;;;;;;;;;;;;;;;;;349947;28;936;-73
2022/02/21 01:09:37;;;;;;;;;;;;;;;;;;350036;28;869;-72
2022/02/21 01:09:47;;;;;;;;;;;;;;;;;;349903;28;905;-73
2022/02/21 01:09:58;;;;;;;;;;;;;;;;;;349821;28;921;-72
2022/02/21 01:10:09;;;;;;;;;;;;;;;;;;349766;28;921;-73
2022/02/21 01:10:19;;;;;;;;;;;;;;;;;;349909;28;992;-73
2022/02/21 01:10:29;;;;;;;;;;;;;;;;;;350019;28;972;-74
2022/02/21 01:10:40;;;;;;;;;;;;;;;;;;349995;28;903;-74
2022/02/21 01:10:50;;;;;;;;;;;;;;;;;;349980;28;933;-72
2022/02/21 01:11:00;;;;;;;;;;;;;;;;;;349890;28;1000;-73
2022/02/21 01:11:13;;;;;;;;;;;;;;;;;;349973;28;814;-72
2022/02/21 01:11:24;;;;;;;;;;;;;;;;;;349975;28;845;-73
2022/02/21 01:11:35;;;;;;;;;;;;;;;;;;350024;28;924;-72
2022/02/21 01:11:45;;;;;;;;;;;;;;;;;;349991;28;913;-72
2022/02/21 01:11:55;;;;;;;;;;;;;;;;;;349389;28;1707;-72
2022/02/21 01:12:06;;;;;;;;;;;;;;;;;;348600;28;952;-72
2022/02/21 01:12:16;;;;;;;;;;;;;;;;;;348614;28;806;-72
2022/02/21 01:12:27;;;;;;;;;;;;;;;;;;348587;28;850;-72
2022/02/21 01:12:37;;;;;;;;;;;;;;;;;;348573;28;937;-72
2022/02/21 01:12:48;;;;;;;;;;;;;;;;;;348656;28;913;-72
2022/02/21 01:12:58;;;;;;;;;;;;;;;;;;348603;28;937;-72
2022/02/21 01:13:08;;;;;;;;;;;;;;;;;;348572;28;861;-72
2022/02/21 01:13:18;;;;;;;;;;;;;;;;;;348599;28;866;-73
2022/02/21 01:13:29;;;;;;;;;;;;;;;;;;348650;28;794;-72
2022/02/21 01:13:39;;;;;;;;;;;;;;;;;;348585;28;941;-73
2022/02/21 01:13:49;;;;;;;;;;;;;;;;;;348644;28;913;-73
2022/02/21 01:14:00;;;;;;;;;;;;;;;;;;348571;28;873;-73
2022/02/21 01:14:10;;;;;;;;;;;;;;;;;;348599;28;976;-73
2022/02/21 01:14:20;;;;;;;;;;;;;;;;;;348638;28;798;-73
2022/02/21 01:14:31;;;;;;;;;;;;;;;;;;348651;28;890;-73